sensor_id;sensor_type;location;lat;lon;timestamp;pressure;altitude;pressure_sealevel;temperature;humidity
49216;BME280;45943;53.148;8.204;2022-10-31T00:01:38;101987.06;;;17.61;100.00
49216;BME280;45943;53.148;8.204;2022-10-31T00:04:05;101995.06;;;17.62;100.00
49216;BME280;45943;53.148;8.204;2022-10-31T00:06:31;101988.78;;;17.62;100.00
49216;BME280;45943;53.148;8.204;2022-10-31T00:08:58;101993.47;;;17.60;100.00
49216;BME280;45943;53.148;8.204;2022-10-31T00:11:26;101994.06;;;17.54;100.00
49216;BME280;45943;53.148;8.204;2022-10-31T00:13:52;101997.91;;;17.51;100.00
49216;BME280;45943;53.148;8.204;2022-10-31T00:16:21;101999.78;;;17.51;100.00
49216;BME280;45943;53.148;8.204;2022-10-31T00:18:49;101993.59;;;17.48;100.00
49216;BME280;45943;53.148;8.204;2022-10-31T00:21:16;101999.19;;;17.47;100.00
49216;BME280;45943;53.148;8.204;2022-10-31T00:23:43;102006.75;;;17.43;100.00
49216;BME280;45943;53.148;8.204;2022-10-31T00:26:09;102008.75;;;17.41;100.00
49216;BME280;45943;53.148;8.204;2022-10-31T00:28:35;102016.88;;;17.41;100.00
49216;BME280;45943;53.148;8.204;2022-10-31T00:31:03;102027.84;;;17.40;100.00
49216;BME280;45943;53.148;8.204;2022-10-31T00:33:32;102021.56;;;17.39;100.00
49216;BME280;45943;53.148;8.204;2022-10-31T00:35:59;102019.13;;;17.36;100.00
49216;BME280;45943;53.148;8.204;2022-10-31T00:38:25;102026.56;;;17.34;100.00
49216;BME280;45943;53.148;8.204;2022-10-31T00:40:51;102032.69;;;17.27;100.00
49216;BME280;45943;53.148;8.204;2022-10-31T00:43:17;102039.38;;;17.23;100.00
49216;BME280;45943;53.148;8.204;2022-10-31T00:45:43;102031.38;;;17.21;100.00
49216;BME280;45943;53.148;8.204;2022-10-31T00:48:10;102025.78;;;17.13;100.00
49216;BME280;45943;53.148;8.204;2022-10-31T00:50:36;102042.78;;;17.15;100.00
49216;BME280;45943;53.148;8.204;2022-10-31T00:53:02;102043.63;;;17.15;100.00
49216;BME280;45943;53.148;8.204;2022-10-31T00:55:28;102048.47;;;17.12;100.00
49216;BME280;45943;53.148;8.204;2022-10-31T00:57:54;102049.88;;;17.06;100.00
49216;BME280;45943;53.148;8.204;2022-10-31T01:00:20;102053.88;;;17.02;100.00
49216;BME280;45943;53.148;8.204;2022-10-31T01:02:47;102053.25;;;16.99;100.00
49216;BME280;45943;53.148;8.204;2022-10-31T01:05:13;102059.22;;;16.92;100.00
49216;BME280;45943;53.148;8.204;2022-10-31T01:07:39;102067.03;;;16.86;100.00
49216;BME280;45943;53.148;8.204;2022-10-31T01:10:06;102063.13;;;16.79;100.00
49216;BME280;45943;53.148;8.204;2022-10-31T01:12:39;102063.94;;;16.70;100.00
49216;BME280;45943;53.148;8.204;2022-10-31T01:15:07;102063.59;;;16.63;100.00
49216;BME280;45943;53.148;8.204;2022-10-31T01:17:35;102068.03;;;16.64;100.00
49216;BME280;45943;53.148;8.204;2022-10-31T01:20:01;102067.75;;;16.67;100.00
49216;BME280;45943;53.148;8.204;2022-10-31T01:22:28;102067.88;;;16.66;100.00
49216;BME280;45943;53.148;8.204;2022-10-31T01:24:54;102061.59;;;16.65;100.00
49216;BME280;45943;53.148;8.204;2022-10-31T01:27:20;102059.03;;;16.63;100.00
49216;BME280;45943;53.148;8.204;2022-10-31T01:29:46;102060.56;;;16.56;100.00
49216;BME280;45943;53.148;8.204;2022-10-31T01:32:12;102060.56;;;16.56;100.00
49216;BME280;45943;53.148;8.204;2022-10-31T01:34:38;102054.28;;;16.56;100.00
49216;BME280;45943;53.148;8.204;2022-10-31T01:37:04;102052.28;;;16.58;100.00
49216;BME280;45943;53.148;8.204;2022-10-31T01:39:30;102063.13;;;16.58;100.00
49216;BME280;45943;53.148;8.204;2022-10-31T01:41:56;102061.28;;;16.58;100.00
49216;BME280;45943;53.148;8.204;2022-10-31T01:54:53;102072.25;;;16.57;100.00
49216;BME280;45943;53.148;8.204;2022-10-31T01:57:27;102069.69;;;16.55;100.00
49216;BME280;45943;53.148;8.204;2022-10-31T01:59:55;102076.22;;;16.53;100.00
49216;BME280;45943;53.148;8.204;2022-10-31T02:02:25;102076.09;;;16.54;100.00
49216;BME280;45943;53.148;8.204;2022-10-31T02:04:54;102067.81;;;16.56;100.00
49216;BME280;45943;53.148;8.204;2022-10-31T02:07:25;102068.69;;;16.56;100.00
49216;BME280;45943;53.148;8.204;2022-10-31T02:09:56;102072.97;;;16.59;100.00
49216;BME280;45943;53.148;8.204;2022-10-31T02:12:24;102066.56;;;16.60;100.00
49216;BME280;45943;53.148;8.204;2022-10-31T02:14:50;102074.53;;;16.61;100.00
49216;BME280;45943;53.148;8.204;2022-10-31T02:17:16;102074.09;;;16.56;100.00
49216;BME280;45943;53.148;8.204;2022-10-31T02:19:51;102075.09;;;16.55;100.00
49216;BME280;45943;53.148;8.204;2022-10-31T02:30:56;102075.88;;;16.46;100.00
49216;BME280;45943;53.148;8.204;2022-10-31T02:33:30;102076.88;;;16.45;100.00
49216;BME280;45943;53.148;8.204;2022-10-31T02:36:26;102071.59;;;16.44;100.00
49216;BME280;45943;53.148;8.204;2022-10-31T02:39:08;102076.81;;;16.35;100.00
49216;BME280;45943;53.148;8.204;2022-10-31T02:47:19;102072.88;;;16.28;100.00
49216;BME280;45943;53.148;8.204;2022-10-31T02:49:59;102082.50;;;16.21;100.00
49216;BME280;45943;53.148;8.204;2022-10-31T02:52:31;102075.16;;;16.12;100.00
49216;BME280;45943;53.148;8.204;2022-10-31T02:54:58;102086.25;;;16.09;100.00
49216;BME280;45943;53.148;8.204;2022-10-31T02:57:28;102081.25;;;16.04;100.00
49216;BME280;45943;53.148;8.204;2022-10-31T03:00:03;102085.06;;;16.02;100.00
49216;BME280;45943;53.148;8.204;2022-10-31T03:02:38;102082.34;;;16.02;100.00
49216;BME280;45943;53.148;8.204;2022-10-31T03:05:37;102083.59;;;15.98;100.00
49216;BME280;45943;53.148;8.204;2022-10-31T03:10:48;102084.13;;;15.81;100.00
49216;BME280;45943;53.148;8.204;2022-10-31T03:15:50;102090.94;;;15.75;100.00
49216;BME280;45943;53.148;8.204;2022-10-31T03:18:21;102088.59;;;15.70;100.00
49216;BME280;45943;53.148;8.204;2022-10-31T03:20:55;102091.06;;;15.73;100.00
49216;BME280;45943;53.148;8.204;2022-10-31T03:23:24;102097.81;;;15.68;100.00
49216;BME280;45943;53.148;8.204;2022-10-31T03:25:51;102096.09;;;15.56;100.00
49216;BME280;45943;53.148;8.204;2022-10-31T03:28:21;102105.94;;;15.57;100.00
49216;BME280;45943;53.148;8.204;2022-10-31T03:30:51;102104.34;;;15.54;100.00
49216;BME280;45943;53.148;8.204;2022-10-31T03:33:21;102103.72;;;15.50;100.00
49216;BME280;45943;53.148;8.204;2022-10-31T03:35:53;102102.38;;;15.45;100.00
49216;BME280;45943;53.148;8.204;2022-10-31T03:38:23;102097.97;;;15.44;100.00
49216;BME280;45943;53.148;8.204;2022-10-31T03:40:49;102091.66;;;15.43;100.00
49216;BME280;45943;53.148;8.204;2022-10-31T03:43:21;102090.94;;;15.41;100.00
49216;BME280;45943;53.148;8.204;2022-10-31T03:45:52;102100.03;;;15.40;100.00
49216;BME280;45943;53.148;8.204;2022-10-31T03:48:18;102102.00;;;15.38;100.00
49216;BME280;45943;53.148;8.204;2022-10-31T03:53:34;102101.63;;;15.43;100.00
49216;BME280;45943;53.148;8.204;2022-10-31T03:56:10;102105.09;;;15.45;100.00
49216;BME280;45943;53.148;8.204;2022-10-31T03:58:46;102105.81;;;15.47;100.00
49216;BME280;45943;53.148;8.204;2022-10-31T04:01:20;102103.00;;;15.48;100.00
49216;BME280;45943;53.148;8.204;2022-10-31T04:03:49;102103.22;;;15.57;100.00
49216;BME280;45943;53.148;8.204;2022-10-31T04:06:15;102104.09;;;15.57;100.00
49216;BME280;45943;53.148;8.204;2022-10-31T04:08:45;102105.31;;;15.53;100.00
49216;BME280;45943;53.148;8.204;2022-10-31T04:11:17;102111.50;;;15.44;100.00
49216;BME280;45943;53.148;8.204;2022-10-31T04:13:47;102101.63;;;15.43;100.00
49216;BME280;45943;53.148;8.204;2022-10-31T04:16:15;102100.91;;;15.41;100.00
49216;BME280;45943;53.148;8.204;2022-10-31T04:18:42;102106.31;;;15.41;100.00
49216;BME280;45943;53.148;8.204;2022-10-31T04:21:08;102109.13;;;15.39;100.00
49216;BME280;45943;53.148;8.204;2022-10-31T04:23:34;102105.06;;;15.34;100.00
49216;BME280;45943;53.148;8.204;2022-10-31T04:26:02;102122.66;;;15.28;100.00
49216;BME280;45943;53.148;8.204;2022-10-31T04:28:28;102119.56;;;15.33;100.00
49216;BME280;45943;53.148;8.204;2022-10-31T04:30:54;102125.38;;;15.28;100.00
49216;BME280;45943;53.148;8.204;2022-10-31T04:33:20;102127.47;;;15.25;100.00
49216;BME280;45943;53.148;8.204;2022-10-31T04:35:46;102121.44;;;15.21;100.00
49216;BME280;45943;53.148;8.204;2022-10-31T04:38:12;102127.56;;;15.12;100.00
49216;BME280;45943;53.148;8.204;2022-10-31T04:40:38;102124.00;;;15.11;100.00
49216;BME280;45943;53.148;8.204;2022-10-31T04:43:05;102129.28;;;15.13;100.00
49216;BME280;45943;53.148;8.204;2022-10-31T04:45:31;102130.63;;;15.07;100.00
49216;BME280;45943;53.148;8.204;2022-10-31T04:47:57;102123.38;;;15.08;100.00
49216;BME280;45943;53.148;8.204;2022-10-31T04:50:23;102121.41;;;15.10;100.00
49216;BME280;45943;53.148;8.204;2022-10-31T04:52:48;102125.72;;;15.12;100.00
49216;BME280;45943;53.148;8.204;2022-10-31T04:55:14;102129.41;;;15.11;100.00
49216;BME280;45943;53.148;8.204;2022-10-31T04:57:41;102130.50;;;15.09;100.00
49216;BME280;45943;53.148;8.204;2022-10-31T05:00:12;102127.94;;;15.07;100.00
49216;BME280;45943;53.148;8.204;2022-10-31T05:02:43;102125.34;;;15.06;100.00
49216;BME280;45943;53.148;8.204;2022-10-31T05:05:16;102117.00;;;15.09;100.00
49216;BME280;45943;53.148;8.204;2022-10-31T05:07:44;102122.66;;;15.06;100.00
49216;BME280;45943;53.148;8.204;2022-10-31T05:10:13;102122.66;;;15.06;100.00
49216;BME280;45943;53.148;8.204;2022-10-31T05:12:45;102123.88;;;15.02;100.00
49216;BME280;45943;53.148;8.204;2022-10-31T05:15:22;102124.38;;;14.96;100.00
49216;BME280;45943;53.148;8.204;2022-10-31T05:17:49;102115.41;;;14.95;100.00
49216;BME280;45943;53.148;8.204;2022-10-31T05:20:17;102119.81;;;14.96;100.00
49216;BME280;45943;53.148;8.204;2022-10-31T05:22:45;102125.22;;;14.96;100.00
49216;BME280;45943;53.148;8.204;2022-10-31T05:25:12;102118.72;;;14.99;100.00
49216;BME280;45943;53.148;8.204;2022-10-31T05:27:42;102116.13;;;14.97;100.00
49216;BME280;45943;53.148;8.204;2022-10-31T05:30:11;102121.16;;;14.90;100.00
49216;BME280;45943;53.148;8.204;2022-10-31T05:32:39;102117.72;;;14.88;100.00
49216;BME280;45943;53.148;8.204;2022-10-31T05:35:10;102114.16;;;14.88;100.00
49216;BME280;45943;53.148;8.204;2022-10-31T05:37:41;102118.56;;;14.89;100.00
49216;BME280;45943;53.148;8.204;2022-10-31T05:40:08;102114.16;;;14.88;100.00
49216;BME280;45943;53.148;8.204;2022-10-31T05:42:35;102120.03;;;14.82;100.00
49216;BME280;45943;53.148;8.204;2022-10-31T05:45:03;102129.94;;;14.70;100.00
49216;BME280;45943;53.148;8.204;2022-10-31T05:47:29;102127.63;;;14.66;100.00
49216;BME280;45943;53.148;8.204;2022-10-31T05:49:55;102125.66;;;14.68;100.00
49216;BME280;45943;53.148;8.204;2022-10-31T05:52:21;102130.06;;;14.69;100.00
49216;BME280;45943;53.148;8.204;2022-10-31T05:54:47;102121.00;;;14.70;100.00
49216;BME280;45943;53.148;8.204;2022-10-31T05:57:13;102126.63;;;14.67;100.00
49216;BME280;45943;53.148;8.204;2022-10-31T05:59:39;102122.22;;;14.66;100.00
49216;BME280;45943;53.148;8.204;2022-10-31T06:02:05;102124.28;;;14.62;100.00
49216;BME280;45943;53.148;8.204;2022-10-31T06:04:31;102133.97;;;14.64;100.00
49216;BME280;45943;53.148;8.204;2022-10-31T06:06:57;102138.41;;;14.66;100.00
49216;BME280;45943;53.148;8.204;2022-10-31T06:09:23;102145.66;;;14.65;100.00
49216;BME280;45943;53.148;8.204;2022-10-31T06:11:49;102150.91;;;14.55;100.00
49216;BME280;45943;53.148;8.204;2022-10-31T06:14:15;102152.97;;;14.52;100.00
49216;BME280;45943;53.148;8.204;2022-10-31T06:16:41;102151.38;;;14.49;100.00
49216;BME280;45943;53.148;8.204;2022-10-31T06:19:07;102149.78;;;14.47;100.00
49216;BME280;45943;53.148;8.204;2022-10-31T06:21:33;102152.56;;;14.45;100.00
49216;BME280;45943;53.148;8.204;2022-10-31T06:23:59;102162.50;;;14.45;100.00
49216;BME280;45943;53.148;8.204;2022-10-31T06:26:25;102162.59;;;14.43;100.00
49216;BME280;45943;53.148;8.204;2022-10-31T06:28:51;102158.28;;;14.41;100.00
49216;BME280;45943;53.148;8.204;2022-10-31T06:31:17;102161.00;;;14.41;100.00
49216;BME280;45943;53.148;8.204;2022-10-31T06:33:46;102162.81;;;14.40;100.00
49216;BME280;45943;53.148;8.204;2022-10-31T06:36:12;102158.53;;;14.38;100.00
49216;BME280;45943;53.148;8.204;2022-10-31T06:38:38;102158.41;;;14.39;100.00
49216;BME280;45943;53.148;8.204;2022-10-31T06:41:05;102168.09;;;14.42;100.00
49216;BME280;45943;53.148;8.204;2022-10-31T06:43:31;102159.78;;;14.45;100.00
49216;BME280;45943;53.148;8.204;2022-10-31T06:46:01;102164.00;;;14.49;100.00
49216;BME280;45943;53.148;8.204;2022-10-31T06:48:28;102160.75;;;14.44;100.00
49216;BME280;45943;53.148;8.204;2022-10-31T06:50:58;102155.47;;;14.42;100.00
49216;BME280;45943;53.148;8.204;2022-10-31T06:53:26;102151.78;;;14.43;100.00
49216;BME280;45943;53.148;8.204;2022-10-31T06:55:52;102159.88;;;14.43;100.00
49216;BME280;45943;53.148;8.204;2022-10-31T06:58:18;102154.00;;;14.38;100.00
49216;BME280;45943;53.148;8.204;2022-10-31T07:00:44;102157.88;;;14.34;100.00
49216;BME280;45943;53.148;8.204;2022-10-31T07:03:11;102171.16;;;14.37;100.00
49216;BME280;45943;53.148;8.204;2022-10-31T07:05:38;102162.22;;;14.37;100.00
49216;BME280;45943;53.148;8.204;2022-10-31T07:08:05;102173.63;;;14.40;100.00
49216;BME280;45943;53.148;8.204;2022-10-31T07:10:33;102178.91;;;14.42;100.00
49216;BME280;45943;53.148;8.204;2022-10-31T07:13:01;102188.31;;;14.49;100.00
49216;BME280;45943;53.148;8.204;2022-10-31T07:15:35;102185.91;;;14.57;100.00
49216;BME280;45943;53.148;8.204;2022-10-31T07:18:04;102181.63;;;14.66;100.00
49216;BME280;45943;53.148;8.204;2022-10-31T07:20:31;102187.66;;;14.69;100.00
49216;BME280;45943;53.148;8.204;2022-10-31T07:22:58;102187.53;;;14.71;100.00
49216;BME280;45943;53.148;8.204;2022-10-31T07:25:24;102181.88;;;14.74;100.00
49216;BME280;45943;53.148;8.204;2022-10-31T07:27:50;102182.16;;;14.82;100.00
49216;BME280;45943;53.148;8.204;2022-10-31T07:30:16;102187.84;;;14.90;100.00
49216;BME280;45943;53.148;8.204;2022-10-31T07:32:50;102185.66;;;14.95;100.00
49216;BME280;45943;53.148;8.204;2022-10-31T07:35:17;102184.28;;;15.01;100.00
49216;BME280;45943;53.148;8.204;2022-10-31T07:37:45;102182.19;;;15.04;100.00
49216;BME280;45943;53.148;8.204;2022-10-31T07:40:12;102184.69;;;15.07;100.00
49216;BME280;45943;53.148;8.204;2022-10-31T07:42:41;102188.25;;;15.08;100.00
49216;BME280;45943;53.148;8.204;2022-10-31T07:45:09;102179.66;;;15.14;100.00
49216;BME280;45943;53.148;8.204;2022-10-31T07:47:41;102174.88;;;15.17;100.00
49216;BME280;45943;53.148;8.204;2022-10-31T07:50:13;102173.41;;;15.25;100.00
49216;BME280;45943;53.148;8.204;2022-10-31T07:52:46;102167.38;;;15.32;100.00
49216;BME280;45943;53.148;8.204;2022-10-31T07:55:13;102171.81;;;15.33;100.00
49216;BME280;45943;53.148;8.204;2022-10-31T07:57:40;102176.34;;;15.33;100.00
49216;BME280;45943;53.148;8.204;2022-10-31T08:00:07;102169.09;;;15.33;100.00
49216;BME280;45943;53.148;8.204;2022-10-31T08:02:35;102178.19;;;15.32;100.00
49216;BME280;45943;53.148;8.204;2022-10-31T08:05:01;102175.16;;;15.37;100.00
49216;BME280;45943;53.148;8.204;2022-10-31T08:07:27;102182.41;;;15.36;100.00
49216;BME280;45943;53.148;8.204;2022-10-31T08:09:54;102179.19;;;15.42;100.00
49216;BME280;45943;53.148;8.204;2022-10-31T08:12:21;102177.47;;;15.41;100.00
49216;BME280;45943;53.148;8.204;2022-10-31T08:14:47;102182.75;;;15.43;100.00
49216;BME280;45943;53.148;8.204;2022-10-31T08:17:13;102184.13;;;15.48;100.00
49216;BME280;45943;53.148;8.204;2022-10-31T08:19:39;102190.13;;;15.52;100.00
49216;BME280;45943;53.148;8.204;2022-10-31T08:22:05;102183.25;;;15.48;100.00
49216;BME280;45943;53.148;8.204;2022-10-31T08:24:31;102185.84;;;15.49;100.00
49216;BME280;45943;53.148;8.204;2022-10-31T08:26:57;102180.28;;;15.51;100.00
49216;BME280;45943;53.148;8.204;2022-10-31T08:29:23;102183.38;;;15.46;100.00
49216;BME280;45943;53.148;8.204;2022-10-31T08:31:49;102180.91;;;15.43;100.00
49216;BME280;45943;53.148;8.204;2022-10-31T08:34:15;102179.94;;;15.44;100.00
49216;BME280;45943;53.148;8.204;2022-10-31T08:36:41;102184.50;;;15.44;100.00
49216;BME280;45943;53.148;8.204;2022-10-31T08:39:10;102182.75;;;15.43;100.00
49216;BME280;45943;53.148;8.204;2022-10-31T08:41:36;102190.38;;;15.38;100.00
49216;BME280;45943;53.148;8.204;2022-10-31T08:44:02;102189.78;;;15.34;100.00
49216;BME280;45943;53.148;8.204;2022-10-31T08:46:28;102187.41;;;15.30;100.00
49216;BME280;45943;53.148;8.204;2022-10-31T08:48:54;102184.72;;;15.30;100.00
49216;BME280;45943;53.148;8.204;2022-10-31T08:51:20;102183.88;;;15.63;100.00
49216;BME280;45943;53.148;8.204;2022-10-31T08:53:46;102186.84;;;15.71;100.00
49216;BME280;45943;53.148;8.204;2022-10-31T08:56:12;102182.28;;;15.71;100.00
49216;BME280;45943;53.148;8.204;2022-10-31T08:58:38;102180.31;;;15.85;100.00
49216;BME280;45943;53.148;8.204;2022-10-31T09:01:04;102175.88;;;15.95;100.00
49216;BME280;45943;53.148;8.204;2022-10-31T09:03:30;102174.59;;;16.10;100.00
49216;BME280;45943;53.148;8.204;2022-10-31T09:05:59;102175.06;;;16.26;100.00
49216;BME280;45943;53.148;8.204;2022-10-31T09:08:31;102168.47;;;16.40;100.00
49216;BME280;45943;53.148;8.204;2022-10-31T09:10:58;102172.75;;;16.54;100.00
49216;BME280;45943;53.148;8.204;2022-10-31T09:13:24;102162.84;;;16.64;100.00
49216;BME280;45943;53.148;8.204;2022-10-31T09:15:50;102163.09;;;16.72;100.00
49216;BME280;45943;53.148;8.204;2022-10-31T09:18:18;102166.47;;;16.85;100.00
49216;BME280;45943;53.148;8.204;2022-10-31T09:20:46;102160.72;;;16.68;100.00
49216;BME280;45943;53.148;8.204;2022-10-31T09:23:15;102157.78;;;16.71;100.00
49216;BME280;45943;53.148;8.204;2022-10-31T09:25:41;102156.53;;;16.75;100.00
49216;BME280;45943;53.148;8.204;2022-10-31T09:28:08;102153.91;;;16.84;100.00
49216;BME280;45943;53.148;8.204;2022-10-31T09:30:37;102156.97;;;17.01;100.00
49216;BME280;45943;53.148;8.204;2022-10-31T09:33:05;102151.38;;;17.13;100.00
49216;BME280;45943;53.148;8.204;2022-10-31T09:35:33;102156.00;;;17.23;100.00
49216;BME280;45943;53.148;8.204;2022-10-31T09:38:00;102157.44;;;17.27;100.00
49216;BME280;45943;53.148;8.204;2022-10-31T09:40:37;102147.63;;;17.35;100.00
49216;BME280;45943;53.148;8.204;2022-10-31T09:51:31;102137.00;;;17.53;100.00
49216;BME280;45943;53.148;8.204;2022-10-31T09:54:09;102135.72;;;17.57;100.00
49216;BME280;45943;53.148;8.204;2022-10-31T09:56:43;102149.75;;;17.62;100.00
49216;BME280;45943;53.148;8.204;2022-10-31T09:59:26;102150.31;;;17.66;100.00
49216;BME280;45943;53.148;8.204;2022-10-31T10:01:58;102143.44;;;17.62;100.00
49216;BME280;45943;53.148;8.204;2022-10-31T10:07:11;102145.25;;;17.82;100.00
49216;BME280;45943;53.148;8.204;2022-10-31T10:09:43;102144.56;;;17.90;100.00
49216;BME280;45943;53.148;8.204;2022-10-31T10:12:19;102152.44;;;18.02;100.00
49216;BME280;45943;53.148;8.204;2022-10-31T10:21:13;102151.03;;;18.27;100.00
49216;BME280;45943;53.148;8.204;2022-10-31T10:23:27;102155.63;;;18.27;100.00
49216;BME280;45943;53.148;8.204;2022-10-31T10:26:33;102143.03;;;18.35;100.00
49216;BME280;45943;53.148;8.204;2022-10-31T10:32:00;102138.19;;;18.58;100.00
49216;BME280;45943;53.148;8.204;2022-10-31T10:34:36;102144.03;;;18.63;100.00
49216;BME280;45943;53.148;8.204;2022-10-31T10:37:18;102138.06;;;18.70;100.00
49216;BME280;45943;53.148;8.204;2022-10-31T10:39:56;102139.47;;;18.74;100.00
49216;BME280;45943;53.148;8.204;2022-10-31T10:42:32;102138.28;;;18.96;100.00
49216;BME280;45943;53.148;8.204;2022-10-31T10:45:19;102141.13;;;19.04;100.00
49216;BME280;45943;53.148;8.204;2022-10-31T10:48:13;102139.22;;;19.24;100.00
49216;BME280;45943;53.148;8.204;2022-10-31T10:50:48;102135.59;;;19.33;100.00
49216;BME280;45943;53.148;8.204;2022-10-31T10:56:00;102139.56;;;19.48;100.00
49216;BME280;45943;53.148;8.204;2022-10-31T10:58:35;102137.13;;;19.45;100.00
49216;BME280;45943;53.148;8.204;2022-10-31T11:01:08;102136.09;;;19.56;100.00
49216;BME280;45943;53.148;8.204;2022-10-31T11:03:37;102122.53;;;19.73;100.00
49216;BME280;45943;53.148;8.204;2022-10-31T11:06:03;102119.31;;;19.88;100.00
49216;BME280;45943;53.148;8.204;2022-10-31T11:08:36;102121.91;;;20.07;100.00
49216;BME280;45943;53.148;8.204;2022-10-31T11:13:44;102110.56;;;20.29;100.00
49216;BME280;45943;53.148;8.204;2022-10-31T11:16:36;102109.78;;;20.37;100.00
49216;BME280;45943;53.148;8.204;2022-10-31T11:19:05;102110.75;;;20.46;100.00
49216;BME280;45943;53.148;8.204;2022-10-31T11:21:33;102107.00;;;20.73;100.00
49216;BME280;45943;53.148;8.204;2022-10-31T11:26:39;102095.50;;;21.73;100.00
49216;BME280;45943;53.148;8.204;2022-10-31T11:29:24;102102.16;;;21.79;100.00
49216;BME280;45943;53.148;8.204;2022-10-31T11:31:57;102101.16;;;21.88;100.00
49216;BME280;45943;53.148;8.204;2022-10-31T11:34:33;102091.06;;;21.88;100.00
49216;BME280;45943;53.148;8.204;2022-10-31T11:37:13;102099.81;;;20.89;100.00
49216;BME280;45943;53.148;8.204;2022-10-31T11:39:41;102097.88;;;20.56;100.00
49216;BME280;45943;53.148;8.204;2022-10-31T11:42:08;102093.53;;;20.45;100.00
49216;BME280;45943;53.148;8.204;2022-10-31T11:44:35;102096.53;;;20.42;100.00
49216;BME280;45943;53.148;8.204;2022-10-31T11:47:02;102090.84;;;20.53;100.00
49216;BME280;45943;53.148;8.204;2022-10-31T11:49:38;102087.09;;;20.54;100.00
49216;BME280;45943;53.148;8.204;2022-10-31T11:52:07;102080.34;;;20.58;100.00
49216;BME280;45943;53.148;8.204;2022-10-31T11:54:44;102081.19;;;20.59;100.00
49216;BME280;45943;53.148;8.204;2022-10-31T12:02:50;102075.03;;;21.09;100.00
49216;BME280;45943;53.148;8.204;2022-10-31T12:05:29;102070.75;;;21.32;100.00
49216;BME280;45943;53.148;8.204;2022-10-31T12:07:58;102071.16;;;21.45;100.00
49216;BME280;45943;53.148;8.204;2022-10-31T12:10:30;102064.53;;;21.56;100.00
49216;BME280;45943;53.148;8.204;2022-10-31T12:16:11;102057.53;;;21.54;100.00
49216;BME280;45943;53.148;8.204;2022-10-31T12:32:29;102027.41;;;21.03;100.00
49216;BME280;45943;53.148;8.204;2022-10-31T12:38:29;101996.06;;;21.50;100.00
49216;BME280;45943;53.148;8.204;2022-10-31T12:41:26;101992.38;;;21.91;100.00
49216;BME280;45943;53.148;8.204;2022-10-31T12:44:05;101984.91;;;22.18;100.00
49216;BME280;45943;53.148;8.204;2022-10-31T12:49:29;101995.47;;;22.37;100.00
49216;BME280;45943;53.148;8.204;2022-10-31T13:00:39;101963.22;;;22.80;100.00
49216;BME280;45943;53.148;8.204;2022-10-31T13:05:41;101948.53;;;22.81;100.00
49216;BME280;45943;53.148;8.204;2022-10-31T13:14:07;101951.47;;;22.71;100.00
49216;BME280;45943;53.148;8.204;2022-10-31T13:16:51;101943.72;;;22.36;100.00
49216;BME280;45943;53.148;8.204;2022-10-31T13:19:24;101937.03;;;22.38;100.00
49216;BME280;45943;53.148;8.204;2022-10-31T13:22:02;101939.09;;;22.28;100.00
49216;BME280;45943;53.148;8.204;2022-10-31T13:27:47;101945.78;;;22.17;100.00
49216;BME280;45943;53.148;8.204;2022-10-31T13:30:19;101933.31;;;21.98;100.00
49216;BME280;45943;53.148;8.204;2022-10-31T13:40:54;101907.34;;;22.74;100.00
49216;BME280;45943;53.148;8.204;2022-10-31T13:43:31;101891.28;;;23.10;100.00
49216;BME280;45943;53.148;8.204;2022-10-31T13:46:00;101877.88;;;23.24;100.00
49216;BME280;45943;53.148;8.204;2022-10-31T13:48:34;101869.34;;;23.18;100.00
49216;BME280;45943;53.148;8.204;2022-10-31T13:51:03;101858.19;;;22.97;100.00
49216;BME280;45943;53.148;8.204;2022-10-31T13:56:29;101844.25;;;22.37;100.00
49216;BME280;45943;53.148;8.204;2022-10-31T14:01:36;101833.44;;;21.88;100.00
49216;BME280;45943;53.148;8.204;2022-10-31T14:04:21;101830.22;;;21.76;100.00
49216;BME280;45943;53.148;8.204;2022-10-31T14:06:54;101839.78;;;21.64;100.00
49216;BME280;45943;53.148;8.204;2022-10-31T14:09:37;101845.91;;;21.41;100.00
49216;BME280;45943;53.148;8.204;2022-10-31T14:12:08;101838.41;;;21.27;100.00
49216;BME280;45943;53.148;8.204;2022-10-31T14:14:47;101834.44;;;21.22;100.00
49216;BME280;45943;53.148;8.204;2022-10-31T14:17:27;101835.47;;;21.20;100.00
49216;BME280;45943;53.148;8.204;2022-10-31T14:22:37;101834.25;;;21.07;100.00
49216;BME280;45943;53.148;8.204;2022-10-31T14:27:53;101815.16;;;20.99;100.00
49216;BME280;45943;53.148;8.204;2022-10-31T14:30:20;101818.56;;;21.01;100.00
49216;BME280;45943;53.148;8.204;2022-10-31T14:32:50;101808.06;;;20.63;100.00
49216;BME280;45943;53.148;8.204;2022-10-31T14:35:19;101794.91;;;20.51;100.00
49216;BME280;45943;53.148;8.204;2022-10-31T14:38:07;101802.03;;;20.44;100.00
49216;BME280;45943;53.148;8.204;2022-10-31T14:43:49;101801.63;;;19.96;100.00
49216;BME280;45943;53.148;8.204;2022-10-31T14:46:41;101800.91;;;19.94;100.00
49216;BME280;45943;53.148;8.204;2022-10-31T14:49:25;101788.47;;;19.92;100.00
49216;BME280;45943;53.148;8.204;2022-10-31T14:52:02;101782.47;;;19.80;100.00
49216;BME280;45943;53.148;8.204;2022-10-31T14:54:33;101776.50;;;19.76;100.00
49216;BME280;45943;53.148;8.204;2022-10-31T14:57:14;101794.91;;;19.57;100.00
49216;BME280;45943;53.148;8.204;2022-10-31T14:59:45;101798.16;;;19.42;100.00
49216;BME280;45943;53.148;8.204;2022-10-31T15:02:28;101795.41;;;19.42;100.00
49216;BME280;45943;53.148;8.204;2022-10-31T15:04:56;101804.59;;;19.41;100.00
49216;BME280;45943;53.148;8.204;2022-10-31T15:07:25;101802.03;;;19.40;100.00